Accueil
METAR-TAF:

METAR-TAF

Aéroports :

Merzifon, Turquie

latitude: 40-51N, longitude: 035-35E, altitude: 545 m

Observation

Le bulletin a été fait il y a 41 minutes, à 06:20 UTC
Vent calme
Température 17°C
Humidité 72%
Pression 1020 hPa
Visibilité 10 km ou plus
Quelques nuages à une hauteur de 4000 ft

METAR: LTAP 170620Z 00000KT 9999 FEW040 17/12 Q1020 NOSIG RMK RWY23 08005KT 050V110

Heure: 10:01 (07:01 UTC)

Prévision

Le bulletin a été fait il y a 2 heures et 21 minutes, à 04:40 UTC
Prévision valable du 17 à 06 UTC au 18 à 06 UTC
Vent 2 kt de direction variable
Visibilité 10 km ou plus
Quelques nuages à une hauteur de 4000 ft
Evoluant progressivement
du 17 à 11 UTC au 17 à 14 UTC
Vent 15 kt de nord/nord-est
Evoluant progressivement
du 17 à 18 UTC au 17 à 20 UTC
Vent 2 kt de direction variable

TAF: LTAP 170440Z 1706/1806 VRB02KT 9999 FEW040 BECMG 1711/1714 03015KT BECMG 1718/1720 VRB02KT

Observations et prévisions météorologiques de plus de 4000 aéroports (messages METAR et TAF).

Les stations disponibles sont représentées par des disques jaunes et rouges sur la carte.

Passer la souris dessus pour voir le nom de la station.

Cliquer dessus pour voir les observations et prévisions météorologiques.

Pour changer de carte: cliquez sur les boutons verts avec une croix noire pour zoomer, sur le bouton vert avec un tiret pour effectuer un zoom arrière, ou sur les flèches vertes pour les cartes adjacentes.


METAR-TAF: